Wetterstation Vordersexau
Wetterdaten: Woche 22.08.11 - 28.08.11 (KW34)
Datum Zeit Temp. A. Feuchte A. Luftdruck Regen Wind Richtung Taupunkt Windchill Windben
22.08.2011 00:00 21,3 C 82 % 1015,7 hPa 0,0 l/m 0,0 km/h SO 18,1 C 21,3 C 0,0 km/h
22.08.2011 01:00 20,4 C 83 % 1015,5 hPa 0,0 l/m 0,0 km/h S-SO 17,4 C 20,4 C 0,0 km/h
22.08.2011 02:00 20,3 C 83 % 1015,2 hPa 0,0 l/m 8,4 km/h NO 17,3 C 19,5 C 4,7 km/h
22.08.2011 03:00 19,4 C 84 % 1015,8 hPa 0,0 l/m 5,2 km/h SO 16,6 C 19,4 C 2,9 km/h
22.08.2011 04:00 18,9 C 84 % 1015,5 hPa 0,0 l/m 0,0 km/h SO 16,1 C 18,9 C 0,0 km/h
22.08.2011 05:00 19,1 C 84 % 1014,8 hPa 0,0 l/m 0,0 km/h O-NO 16,3 C 19,1 C 0,0 km/h
22.08.2011 06:00 19,4 C 84 % 1015,5 hPa 0,0 l/m 0,0 km/h O-NO 16,6 C 19,4 C 0,0 km/h
22.08.2011 07:00 20,1 C 84 % 1015,5 hPa 0,0 l/m 0,0 km/h S-SO 17,3 C 20,1 C 0,0 km/h
22.08.2011 08:00 23,6 C 80 % 1015,6 hPa 0,0 l/m 0,0 km/h SO 19,9 C 23,6 C 0,0 km/h
22.08.2011 09:00 29,1 C 65 % 1015,5 hPa 0,0 l/m 1,9 km/h W 21,8 C 29,1 C 1,1 km/h
22.08.2011 10:00 32,9 C 56 % 1015,6 hPa 0,0 l/m 0,0 km/h N-NW 22,9 C 32,9 C 0,0 km/h
22.08.2011 11:00 34,4 C 51 % 1015,3 hPa 0,0 l/m 0,0 km/h W-NW 22,8 C 34,4 C 0,0 km/h
22.08.2011 12:00 34,2 C 52 % 1015,3 hPa 0,0 l/m 0,0 km/h W 22,9 C 34,2 C 0,0 km/h
22.08.2011 13:00 35,6 C 49 % 1014,6 hPa 0,0 l/m 6,5 km/h S-SW 23,2 C 35,6 C 3,6 km/h
22.08.2011 14:00 36,6 C 42 % 1014,0 hPa 0,0 l/m 0,0 km/h W 21,6 C 36,6 C 0,0 km/h
22.08.2011 15:00 41,1 C 29 % 1013,7 hPa 0,0 l/m 0,0 km/h O-NO 19,5 C 41,1 C 0,0 km/h
22.08.2011 16:00 44,4 C 23 % 1013,2 hPa 0,0 l/m 0,0 km/h NW 18,5 C 44,4 C 0,0 km/h
22.08.2011 17:00 41,5 C 33 % 1013,1 hPa 0,0 l/m 3,9 km/h N-NO 21,9 C 41,5 C 2,2 km/h
22.08.2011 18:00 39,8 C 36 % 1012,8 hPa 0,0 l/m 0,0 km/h W 21,9 C 39,8 C 0,0 km/h
22.08.2011 19:00 34,1 C 48 % 1012,6 hPa 0,0 l/m 0,0 km/h S-SO 21,5 C 34,1 C 0,0 km/h
22.08.2011 20:00 26,8 C 68 % 1012,8 hPa 0,0 l/m 0,0 km/h O-SO 20,4 C 26,8 C 0,0 km/h
22.08.2011 21:00 23,9 C 72 % 1013,1 hPa 0,0 l/m 0,0 km/h O-NO 18,5 C 23,9 C 0,0 km/h
22.08.2011 22:00 23,5 C 75 % 1013,2 hPa 0,0 l/m 0,0 km/h O-SO 18,8 C 23,5 C 0,0 km/h
22.08.2011 23:00 22,2 C 77 % 1012,8 hPa 0,0 l/m 0,0 km/h SW 18,0 C 22,2 C 0,0 km/h
23.08.2011 00:00 21,8 C 81 % 1013,8 hPa 0,0 l/m 3,9 km/h SW 18,4 C 21,8 C 2,2 km/h
23.08.2011 01:00 22,6 C 78 % 1012,9 hPa 0,0 l/m 3,2 km/h NO 18,6 C 22,6 C 1,8 km/h
23.08.2011 02:00 21,1 C 82 % 1012,5 hPa 0,0 l/m 0,0 km/h O-NO 17,9 C 21,1 C 0,0 km/h
23.08.2011 03:00 20,1 C 83 % 1012,6 hPa 0,0 l/m 0,0 km/h NO 17,1 C 20,1 C 0,0 km/h
23.08.2011 04:00 19,3 C 84 % 1012,7 hPa 0,0 l/m 0,0 km/h NO 16,5 C 19,3 C 0,0 km/h
23.08.2011 05:00 19,0 C 84 % 1012,5 hPa 0,0 l/m 0,0 km/h NO 16,2 C 19,0 C 0,0 km/h
23.08.2011 06:00 18,1 C 84 % 1012,7 hPa 0,0 l/m 0,0 km/h O-SO 15,4 C 18,1 C 0,0 km/h
23.08.2011 07:00 19,3 C 84 % 1013,2 hPa 0,0 l/m 0,0 km/h SO 16,5 C 19,3 C 0,0 km/h
23.08.2011 08:00 22,6 C 77 % 1013,7 hPa 0,0 l/m 0,0 km/h SO 18,4 C 22,6 C 0,0 km/h
23.08.2011 09:00 31,8 C 55 % 1013,3 hPa 0,0 l/m 0,0 km/h SO 21,6 C 31,8 C 0,0 km/h
23.08.2011 10:00 29,8 C 60 % 1013,6 hPa 0,0 l/m 0,0 km/h W-SW 21,2 C 29,8 C 0,0 km/h
23.08.2011 11:00 36,1 C 42 % 1013,7 hPa 0,0 l/m 0,0 km/h SW 21,1 C 36,1 C 0,0 km/h
23.08.2011 12:00 34,3 C 37 % 1013,6 hPa 0,0 l/m 14,9 km/h SW 17,5 C 34,3 C 8,3 km/h
23.08.2011 13:00 35,0 C 34 % 1013,2 hPa 0,0 l/m 15,6 km/h W-SW 16,8 C 35,0 C 8,6 km/h
23.08.2011 14:00 35,2 C 34 % 1013,1 hPa 0,0 l/m 14,9 km/h SW 16,9 C 35,2 C 8,3 km/h
23.08.2011 15:00 38,4 C 30 % 1012,6 hPa 0,0 l/m 1,3 km/h W-SW 17,7 C 38,4 C 0,7 km/h
23.08.2011 16:00 38,3 C 32 % 1012,4 hPa 0,0 l/m 1,3 km/h W-SW 18,6 C 38,3 C 0,7 km/h
23.08.2011 17:00 33,2 C 43 % 1012,2 hPa 0,0 l/m 0,0 km/h W 18,9 C 33,2 C 0,0 km/h
23.08.2011 18:00 36,1 C 36 % 1012,0 hPa 0,0 l/m 0,0 km/h SW 18,6 C 36,1 C 0,0 km/h
23.08.2011 19:00 33,9 C 40 % 1012,1 hPa 0,0 l/m 0,0 km/h NO 18,4 C 33,9 C 0,0 km/h
23.08.2011 20:00 26,9 C 56 % 1012,5 hPa 0,0 l/m 0,0 km/h SO 17,4 C 26,9 C 0,0 km/h
23.08.2011 21:00 24,2 C 61 % 1012,9 hPa 0,0 l/m 0,0 km/h O-SO 16,2 C 24,2 C 0,0 km/h
23.08.2011 22:00 22,9 C 65 % 1012,9 hPa 0,0 l/m 0,0 km/h S-SO 16,0 C 22,9 C 0,0 km/h
23.08.2011 23:00 21,8 C 70 % 1013,5 hPa 0,0 l/m 0,0 km/h NO 16,1 C 21,8 C 0,0 km/h
24.08.2011 00:00 20,6 C 73 % 1013,2 hPa 0,0 l/m 0,0 km/h NO 15,6 C 20,6 C 0,0 km/h
24.08.2011 01:00 19,3 C 76 % 1013,6 hPa 0,0 l/m 0,0 km/h O-SO 15,0 C 19,3 C 0,0 km/h
24.08.2011 02:00 18,9 C 77 % 1013,6 hPa 0,0 l/m 0,0 km/h O-NO 14,8 C 18,9 C 0,0 km/h
24.08.2011 03:00 18,6 C 79 % 1014,2 hPa 0,0 l/m 0,0 km/h N-NO 14,9 C 18,6 C 0,0 km/h
24.08.2011 04:00 18,3 C 81 % 1014,6 hPa 0,0 l/m 0,0 km/h N-NO 15,0 C 18,3 C 0,0 km/h
24.08.2011 05:00 17,6 C 82 % 1014,1 hPa 0,0 l/m 0,0 km/h O-SO 14,5 C 17,6 C 0,0 km/h
24.08.2011 06:00 16,5 C 83 % 1014,7 hPa 0,0 l/m 0,0 km/h NO 13,6 C 16,5 C 0,0 km/h
24.08.2011 07:00 17,5 C 84 % 1014,8 hPa 0,0 l/m 0,0 km/h SO 14,8 C 17,5 C 0,0 km/h
24.08.2011 08:00 19,8 C 81 % 1015,3 hPa 0,0 l/m 0,0 km/h SO 16,4 C 19,8 C 0,0 km/h
24.08.2011 09:00 24,1 C 69 % 1014,9 hPa 0,0 l/m 0,0 km/h S 18,0 C 24,1 C 0,0 km/h
24.08.2011 10:00 29,3 C 56 % 1014,2 hPa 0,0 l/m 0,0 km/h SO 19,6 C 29,3 C 0,0 km/h
24.08.2011 11:00 32,8 C 49 % 1014,0 hPa 0,0 l/m 0,0 km/h W-NW 20,6 C 32,8 C 0,0 km/h
24.08.2011 12:00 33,4 C 46 % 1013,8 hPa 0,0 l/m 0,0 km/h NW 20,2 C 33,4 C 0,0 km/h
24.08.2011 13:00 33,0 C 47 % 1013,1 hPa 0,0 l/m 1,9 km/h W-NW 20,2 C 33,0 C 1,1 km/h
24.08.2011 14:00 34,3 C 44 % 1012,5 hPa 0,0 l/m 0,0 km/h W 20,3 C 34,3 C 0,0 km/h
24.08.2011 15:00 29,8 C 52 % 1012,8 hPa 0,0 l/m 0,0 km/h W-SW 18,9 C 29,8 C 0,0 km/h
24.08.2011 16:00 35,9 C 40 % 1013,2 hPa 0,0 l/m 3,2 km/h N 20,1 C 35,9 C 1,8 km/h
24.08.2011 17:00 30,9 C 49 % 1014,1 hPa 0,0 l/m 0,0 km/h W-NW 18,9 C 30,9 C 0,0 km/h
24.08.2011 18:00 32,2 C 44 % 1014,3 hPa 0,0 l/m 0,0 km/h W 18,4 C 32,2 C 0,0 km/h
24.08.2011 19:00 23,8 C 66 % 1014,6 hPa 0,0 l/m 0,0 km/h W 17,1 C 23,8 C 0,0 km/h
24.08.2011 20:00 22,1 C 74 % 1014,8 hPa 0,0 l/m 0,0 km/h SW 17,2 C 22,1 C 0,0 km/h
24.08.2011 21:00 21,0 C 79 % 1015,5 hPa 0,0 l/m 0,0 km/h SO 17,2 C 21,0 C 0,0 km/h
24.08.2011 22:00 20,5 C 81 % 1015,4 hPa 0,0 l/m 5,8 km/h O 17,1 C 20,5 C 3,2 km/h
24.08.2011 23:00 18,9 C 83 % 1014,9 hPa 0,0 l/m 0,0 km/h O-NO 15,9 C 18,9 C 0,0 km/h
25.08.2011 00:00 17,9 C 84 % 1014,9 hPa 0,0 l/m 0,0 km/h N-NO 15,2 C 17,9 C 0,0 km/h
25.08.2011 01:00 16,9 C 84 % 1014,5 hPa 0,0 l/m 0,0 km/h N-NO 14,2 C 16,9 C 0,0 km/h
25.08.2011 02:00 16,6 C 84 % 1014,2 hPa 0,0 l/m 0,0 km/h NO 13,9 C 16,6 C 0,0 km/h
25.08.2011 03:00 16,6 C 83 % 1014,1 hPa 0,0 l/m 0,0 km/h O-NO 13,7 C 16,6 C 0,0 km/h
25.08.2011 04:00 16,4 C 83 % 1013,9 hPa 0,0 l/m 0,0 km/h W-NW 13,5 C 16,4 C 0,0 km/h
25.08.2011 05:00 17,1 C 82 % 1014,0 hPa 0,0 l/m 0,0 km/h W-NW 14,0 C 17,1 C 0,0 km/h
25.08.2011 06:00 16,9 C 81 % 1013,7 hPa 0,0 l/m 0,0 km/h W-NW 13,6 C 16,9 C 0,0 km/h
25.08.2011 07:00 17,0 C 80 % 1013,2 hPa 0,0 l/m 0,0 km/h W 13,5 C 17,0 C 0,0 km/h
25.08.2011 08:00 17,8 C 81 % 1013,3 hPa 0,0 l/m 0,0 km/h W 14,5 C 17,8 C 0,0 km/h
25.08.2011 09:00 20,1 C 84 % 1013,4 hPa 0,0 l/m 0,0 km/h W 17,3 C 20,1 C 0,0 km/h
25.08.2011 10:00 21,3 C 80 % 1013,7 hPa 0,0 l/m 0,0 km/h NO 17,7 C 21,3 C 0,0 km/h
25.08.2011 11:00 25,3 C 69 % 1013,3 hPa 0,0 l/m 0,0 km/h S 19,2 C 25,3 C 0,0 km/h
25.08.2011 12:00 29,5 C 58 % 1012,8 hPa 0,0 l/m 0,0 km/h S 20,3 C 29,5 C 0,0 km/h
25.08.2011 13:00 30,9 C 52 % 1012,1 hPa 0,0 l/m 0,0 km/h N 19,9 C 30,9 C 0,0 km/h
25.08.2011 14:00 32,3 C 47 % 1012,1 hPa 0,0 l/m 0,0 km/h W-NW 19,5 C 32,3 C 0,0 km/h
25.08.2011 15:00 32,9 C 46 % 1011,9 hPa 0,0 l/m 1,3 km/h SW 19,7 C 32,9 C 0,7 km/h
25.08.2011 16:00 34,6 C 42 % 1011,8 hPa 0,0 l/m 1,3 km/h W-NW 19,8 C 34,6 C 0,7 km/h
25.08.2011 17:00 35,1 C 41 % 1011,3 hPa 0,0 l/m 8,4 km/h W-NW 19,8 C 35,1 C 4,7 km/h
25.08.2011 18:00 32,1 C 44 % 1011,2 hPa 0,0 l/m 1,3 km/h W-NW 18,3 C 32,1 C 0,7 km/h
25.08.2011 19:00 26,7 C 60 % 1010,8 hPa 0,0 l/m 0,0 km/h O-SO 18,3 C 26,7 C 0,0 km/h
25.08.2011 20:00 23,0 C 71 % 1011,3 hPa 0,0 l/m 0,0 km/h W 17,4 C 23,0 C 0,0 km/h
25.08.2011 21:00 21,8 C 76 % 1012,0 hPa 0,0 l/m 0,0 km/h SW 17,4 C 21,8 C 0,0 km/h
25.08.2011 22:00 21,3 C 80 % 1011,3 hPa 0,0 l/m 0,0 km/h N-NW 17,7 C 21,3 C 0,0 km/h
25.08.2011 23:00 20,1 C 82 % 1010,3 hPa 0,0 l/m 0,0 km/h NO 16,9 C 20,1 C 0,0 km/h
26.08.2011 00:00 19,8 C 83 % 1010,2 hPa 0,0 l/m 0,0 km/h NO 16,8 C 19,8 C 0,0 km/h
26.08.2011 01:00 18,4 C 84 % 1010,5 hPa 0,0 l/m 0,0 km/h SO 15,6 C 18,4 C 0,0 km/h
26.08.2011 02:00 17,9 C 83 % 1009,7 hPa 0,0 l/m 0,0 km/h SO 15,0 C 17,9 C 0,0 km/h
26.08.2011 03:00 17,2 C 83 % 1008,4 hPa 0,0 l/m 0,0 km/h O-SO 14,3 C 17,2 C 0,0 km/h
26.08.2011 04:00 16,6 C 82 % 1008,0 hPa 0,0 l/m 0,0 km/h NO 13,5 C 16,6 C 0,0 km/h
26.08.2011 05:00 16,2 C 82 % 1007,1 hPa 0,0 l/m 0,0 km/h O-NO 13,1 C 16,2 C 0,0 km/h
26.08.2011 06:00 15,5 C 82 % 1006,8 hPa 0,0 l/m 0,0 km/h N-NO 12,4 C 15,5 C 0,0 km/h
26.08.2011 07:00 16,1 C 81 % 1006,1 hPa 0,0 l/m 0,0 km/h NW 12,8 C 16,1 C 0,0 km/h
26.08.2011 08:00 18,6 C 79 % 1006,2 hPa 0,0 l/m 0,0 km/h W-SW 14,9 C 18,6 C 0,0 km/h
26.08.2011 09:00 25,9 C 75 % 1005,6 hPa 0,0 l/m 0,0 km/h W 21,1 C 25,9 C 0,0 km/h
26.08.2011 10:00 28,6 C 64 % 1005,4 hPa 0,0 l/m 0,0 km/h W-SW 21,1 C 28,6 C 0,0 km/h
26.08.2011 11:00 31,5 C 56 % 1005,2 hPa 0,0 l/m 0,0 km/h W 21,6 C 31,5 C 0,0 km/h
26.08.2011 12:00 32,1 C 51 % 1004,7 hPa 0,0 l/m 0,0 km/h W-SW 20,7 C 32,1 C 0,0 km/h
26.08.2011 13:00 32,6 C 55 % 1004,5 hPa 0,0 l/m 18,1 km/h SW 22,4 C 32,5 C 10,1 km/h
26.08.2011 14:00 34,9 C 47 % 1003,7 hPa 0,0 l/m 0,0 km/h W 21,9 C 34,9 C 0,0 km/h
26.08.2011 15:00 35,0 C 42 % 1003,3 hPa 0,0 l/m 0,0 km/h N-NW 20,1 C 35,0 C 0,0 km/h
26.08.2011 16:00 33,0 C 45 % 1003,3 hPa 0,0 l/m 2,6 km/h W-NW 19,4 C 33,0 C 1,4 km/h
26.08.2011 17:00 27,3 C 56 % 1003,6 hPa 0,0 l/m 16,8 km/h N 17,7 C 25,9 C 9,4 km/h
26.08.2011 18:00 24,1 C 65 % 1005,5 hPa 0,0 l/m 3,2 km/h W 17,1 C 24,1 C 1,8 km/h
26.08.2011 19:00 18,6 C 75 % 1007,9 hPa 0,0 l/m 28,5 km/h W-NW 14,1 C 13,0 C 15,8 km/h
26.08.2011 20:00 15,1 C 83 % 1010,5 hPa 0,0 l/m 0,0 km/h W-SW 12,2 C 15,1 C 0,0 km/h
26.08.2011 21:00 13,6 C 84 % 1012,1 hPa 0,0 l/m 13,6 km/h W-SW 10,9 C 10,0 C 7,6 km/h
26.08.2011 22:00 13,4 C 84 % 1011,8 hPa 0,0 l/m 0,0 km/h SW 10,8 C 13,4 C 0,0 km/h
26.08.2011 23:00 13,6 C 85 % 1011,8 hPa 0,0 l/m 7,8 km/h W-SW 11,1 C 12,7 C 4,3 km/h
27.08.2011 00:00 13,4 C 84 % 1012,3 hPa 0,0 l/m 20,7 km/h W-SW 10,8 C 7,5 C 11,5 km/h
27.08.2011 01:00 13,2 C 83 % 1012,6 hPa 0,0 l/m 22,0 km/h W 10,4 C 6,9 C 12,2 km/h
27.08.2011 02:00 12,9 C 81 % 1013,5 hPa 0,0 l/m 16,2 km/h W-SW 9,7 C 8,2 C 9,0 km/h
27.08.2011 03:00 12,0 C 84 % 1012,8 hPa 0,0 l/m 0,0 km/h W 9,4 C 12,0 C 0,0 km/h
27.08.2011 04:00 11,7 C 85 % 1013,6 hPa 0,0 l/m 3,2 km/h S-SW 9,3 C 11,7 C 1,8 km/h
27.08.2011 05:00 11,1 C 85 % 1013,3 hPa 0,0 l/m 0,0 km/h O-NO 8,7 C 11,1 C 0,0 km/h
27.08.2011 06:00 11,1 C 84 % 1012,8 hPa 0,0 l/m 0,0 km/h NO 8,5 C 11,1 C 0,0 km/h
27.08.2011 07:00 10,6 C 84 % 1013,4 hPa 0,0 l/m 0,0 km/h SO 8,0 C 10,6 C 0,0 km/h
27.08.2011 08:00 12,1 C 83 % 1013,7 hPa 0,0 l/m 0,0 km/h O-NO 9,3 C 12,1 C 0,0 km/h
27.08.2011 09:00 18,1 C 79 % 1013,8 hPa 0,0 l/m 0,0 km/h W 14,4 C 18,1 C 0,0 km/h
27.08.2011 10:00 16,6 C 70 % 1014,5 hPa 0,0 l/m 22,7 km/h S 11,1 C 11,2 C 12,6 km/h
27.08.2011 11:00 18,3 C 67 % 1015,1 hPa 0,0 l/m 22,0 km/h W-SW 12,1 C 13,6 C 12,2 km/h
27.08.2011 12:00 17,0 C 64 % 1015,7 hPa 0,0 l/m 34,3 km/h S-SW 10,1 C 9,9 C 19,1 km/h
27.08.2011 13:00 16,7 C 67 % 1016,0 hPa 0,0 l/m 24,0 km/h W-SW 10,5 C 11,1 C 13,3 km/h
27.08.2011 14:00 18,8 C 63 % 1016,3 hPa 0,0 l/m 22,0 km/h S 11,6 C 14,3 C 12,2 km/h
27.08.2011 15:00 17,2 C 65 % 1016,8 hPa 0,0 l/m 25,3 km/h W-SW 10,6 C 11,5 C 14,0 km/h
27.08.2011 16:00 17,9 C 64 % 1017,1 hPa 0,0 l/m 22,7 km/h W-SW 11,0 C 13,0 C 12,6 km/h
27.08.2011 17:00 17,0 C 72 % 1018,0 hPa 0,0 l/m 18,8 km/h SW 11,9 C 12,6 C 10,4 km/h
27.08.2011 18:00 16,7 C 71 % 1018,1 hPa 0,0 l/m 10,4 km/h S-SW 11,4 C 14,8 C 5,8 km/h
27.08.2011 19:00 19,2 C 63 % 1018,5 hPa 0,0 l/m 20,7 km/h S-SW 12,0 C 15,0 C 11,5 km/h
27.08.2011 20:00 15,3 C 72 % 1018,7 hPa 0,0 l/m 24,0 km/h SW 10,3 C 9,2 C 13,3 km/h
27.08.2011 21:00 15,0 C 75 % 1019,5 hPa 0,0 l/m 24,6 km/h SW 10,6 C 8,7 C 13,7 km/h
27.08.2011 22:00 14,3 C 76 % 1019,4 hPa 0,0 l/m 0,0 km/h S-SW 10,1 C 14,3 C 0,0 km/h
27.08.2011 23:00 12,6 C 81 % 1019,6 hPa 0,0 l/m 9,7 km/h NO 9,4 C 10,6 C 5,4 km/h
28.08.2011 00:00 12,8 C 81 % 1019,8 hPa 0,0 l/m 0,0 km/h NO 9,6 C 12,8 C 0,0 km/h
28.08.2011 01:00 11,9 C 84 % 1019,9 hPa 0,0 l/m 1,9 km/h NO 9,3 C 11,9 C 1,1 km/h
28.08.2011 02:00 11,6 C 84 % 1019,8 hPa 0,0 l/m 0,0 km/h NO 9,0 C 11,6 C 0,0 km/h
28.08.2011 03:00 11,9 C 84 % 1019,8 hPa 0,0 l/m 0,0 km/h NO 9,3 C 11,9 C 0,0 km/h
28.08.2011 04:00 11,9 C 85 % 1019,8 hPa 0,0 l/m 0,0 km/h O-SO 9,5 C 11,9 C 0,0 km/h
28.08.2011 05:00 10,5 C 85 % 1019,4 hPa 0,0 l/m 0,0 km/h SO 8,1 C 10,5 C 0,0 km/h
28.08.2011 06:00 9,6 C 84 % 1019,3 hPa 0,0 l/m 0,0 km/h SO 7,0 C 9,6 C 0,0 km/h
28.08.2011 07:00 9,9 C 83 % 1019,4 hPa 0,0 l/m 0,0 km/h SO 7,2 C 9,9 C 0,0 km/h
28.08.2011 08:00 11,9 C 82 % 1019,5 hPa 0,0 l/m 3,2 km/h O-NO 8,9 C 11,9 C 1,8 km/h
28.08.2011 09:00 21,5 C 67 % 1019,5 hPa 0,0 l/m 0,0 km/h W 15,1 C 21,5 C 0,0 km/h
28.08.2011 10:00 24,6 C 51 % 1019,4 hPa 0,0 l/m 5,8 km/h W 13,8 C 24,6 C 3,2 km/h
28.08.2011 11:00 24,8 C 46 % 1019,1 hPa 0,0 l/m 0,0 km/h W-NW 12,4 C 24,8 C 0,0 km/h
28.08.2011 12:00 24,5 C 45 % 1018,6 hPa 0,0 l/m 22,0 km/h S 11,8 C 21,8 C 12,2 km/h
28.08.2011 13:00 25,5 C 42 % 1017,7 hPa 0,0 l/m 11,7 km/h W-SW 11,6 C 24,4 C 6,5 km/h
28.08.2011 14:00 25,8 C 38 % 1017,5 hPa 0,0 l/m 13,6 km/h W 10,4 C 24,5 C 7,6 km/h
28.08.2011 15:00 28,9 C 33 % 1017,2 hPa 0,0 l/m 22,7 km/h SW 11,0 C 27,6 C 12,6 km/h
28.08.2011 16:00 29,6 C 33 % 1016,8 hPa 0,0 l/m 13,0 km/h W 11,6 C 29,0 C 7,2 km/h
28.08.2011 17:00 31,2 C 29 % 1016,5 hPa 0,0 l/m 1,9 km/h W-SW 11,0 C 31,2 C 1,1 km/h
28.08.2011 18:00 29,6 C 32 % 1015,9 hPa 0,0 l/m 8,4 km/h W-SW 11,1 C 29,4 C 4,7 km/h
28.08.2011 19:00 23,6 C 40 % 1015,9 hPa 0,0 l/m 0,0 km/h N-NO 9,2 C 23,6 C 0,0 km/h
28.08.2011 20:00 16,8 C 63 % 1016,1 hPa 0,0 l/m 0,0 km/h SO 9,7 C 16,8 C 0,0 km/h
28.08.2011 21:00 14,1 C 72 % 1016,8 hPa 0,0 l/m 0,0 km/h SO 9,1 C 14,1 C 0,0 km/h
28.08.2011 22:00 13,6 C 76 % 1016,9 hPa 0,0 l/m 0,0 km/h O 9,4 C 13,6 C 0,0 km/h
28.08.2011 23:00 13,5 C 77 % 1017,0 hPa 0,0 l/m 0,0 km/h SO 9,5 C 13,5 C 0,0 km/h
Min-Datum _ 28.08.11 22.08.11 26.08.11 - 22.08.11 - 28.08.11 27.08.11 22.08.11
_ Min-Zeit 06:30 16:30 15:30 - 00:30 - 06:30 01:30 00:30
Minimum _ 9,6 C 23 % 1003,3 hPa - 0,0 km/h - 7,0 C 6,9 C 0,0 km/h
Max-Datum _ 22.08.11 26.08.11 28.08.11 22.08.11 27.08.11 - 22.08.11 22.08.11 27.08.11
_ Max-Zeit 16:30 23:30 01:30 00:30 12:30 - 13:30 16:30 12:30
Maximum _ 44,4 C 85 % 1019,9 hPa 0,0 l/m 34,3 km/h
S-SW
- 23,2 C 44,4 C 19,1 km/h
S-SW
Durchschnitt _ 22,8 C 67 % 1013,6 hPa #0,0 l/m 3,8 km/h W 15,5 C 22,3 C 2,1 km/h
www.sexauwetter.de